sensor_id;sensor_type;location;lat;lon;timestamp;pressure;altitude;pressure_sealevel;temperature;humidity
41690;BME280;27372;42.658;23.256;2024-03-08T00:00:05;93800.44;;;6.17;100.00
41690;BME280;27372;42.658;23.256;2024-03-08T00:02:40;93810.28;;;6.15;100.00
41690;BME280;27372;42.658;23.256;2024-03-08T00:05:06;93812.44;;;6.25;100.00
41690;BME280;27372;42.658;23.256;2024-03-08T00:07:37;93810.50;;;6.13;100.00
41690;BME280;27372;42.658;23.256;2024-03-08T00:10:03;93807.69;;;6.08;100.00
41690;BME280;27372;42.658;23.256;2024-03-08T00:12:29;93806.47;;;6.11;100.00
41690;BME280;27372;42.658;23.256;2024-03-08T00:14:54;93799.09;;;6.08;100.00
41690;BME280;27372;42.658;23.256;2024-03-08T00:17:21;93804.03;;;6.22;100.00
41690;BME280;27372;42.658;23.256;2024-03-08T00:19:48;93809.03;;;6.24;100.00
41690;BME280;27372;42.658;23.256;2024-03-08T00:22:15;93797.81;;;6.24;100.00
41690;BME280;27372;42.658;23.256;2024-03-08T00:24:40;93799.63;;;6.16;100.00
41690;BME280;27372;42.658;23.256;2024-03-08T00:27:06;93799.00;;;6.21;100.00
41690;BME280;27372;42.658;23.256;2024-03-08T00:29:31;93800.88;;;6.07;100.00
41690;BME280;27372;42.658;23.256;2024-03-08T00:31:56;93790.22;;;6.15;100.00
41690;BME280;27372;42.658;23.256;2024-03-08T00:34:23;93793.63;;;6.16;100.00
41690;BME280;27372;42.658;23.256;2024-03-08T00:36:48;93790.75;;;6.24;100.00
41690;BME280;27372;42.658;23.256;2024-03-08T00:39:14;93790.16;;;6.22;100.00
41690;BME280;27372;42.658;23.256;2024-03-08T00:41:39;93788.38;;;6.22;100.00
41690;BME280;27372;42.658;23.256;2024-03-08T00:44:04;93792.44;;;6.12;100.00
41690;BME280;27372;42.658;23.256;2024-03-08T00:46:30;93783.41;;;6.14;100.00
41690;BME280;27372;42.658;23.256;2024-03-08T00:48:56;93786.75;;;6.28;100.00
41690;BME280;27372;42.658;23.256;2024-03-08T00:51:22;93787.66;;;6.09;100.00
41690;BME280;27372;42.658;23.256;2024-03-08T00:53:47;93781.63;;;6.08;100.00
41690;BME280;27372;42.658;23.256;2024-03-08T00:56:13;93768.88;;;5.80;100.00
41690;BME280;27372;42.658;23.256;2024-03-08T00:58:38;93779.75;;;5.63;100.00
41690;BME280;27372;42.658;23.256;2024-03-08T01:01:04;93770.94;;;5.57;100.00
41690;BME280;27372;42.658;23.256;2024-03-08T01:03:32;93765.34;;;5.60;100.00
41690;BME280;27372;42.658;23.256;2024-03-08T01:05:59;93773.16;;;5.60;100.00
41690;BME280;27372;42.658;23.256;2024-03-08T01:08:27;93768.56;;;5.56;100.00
41690;BME280;27372;42.658;23.256;2024-03-08T01:10:53;93771.53;;;5.59;100.00
41690;BME280;27372;42.658;23.256;2024-03-08T01:13:18;93774.00;;;5.41;100.00
41690;BME280;27372;42.658;23.256;2024-03-08T01:15:44;93766.19;;;5.41;100.00
41690;BME280;27372;42.658;23.256;2024-03-08T01:18:10;93774.00;;;5.34;100.00
41690;BME280;27372;42.658;23.256;2024-03-08T01:20:36;93767.59;;;5.30;100.00
41690;BME280;27372;42.658;23.256;2024-03-08T01:23:01;93777.78;;;5.45;100.00
41690;BME280;27372;42.658;23.256;2024-03-08T01:25:26;93766.19;;;5.48;100.00
41690;BME280;27372;42.658;23.256;2024-03-08T01:27:52;93759.16;;;5.35;100.00
41690;BME280;27372;42.658;23.256;2024-03-08T01:30:19;93761.59;;;5.23;100.00
41690;BME280;27372;42.658;23.256;2024-03-08T01:32:44;93752.38;;;5.34;100.00
41690;BME280;27372;42.658;23.256;2024-03-08T01:35:10;93754.19;;;5.33;100.00
41690;BME280;27372;42.658;23.256;2024-03-08T01:37:35;93760.97;;;5.41;100.00
41690;BME280;27372;42.658;23.256;2024-03-08T01:40:01;93756.75;;;5.47;100.00
41690;BME280;27372;42.658;23.256;2024-03-08T01:42:28;93753.31;;;5.53;100.00
41690;BME280;27372;42.658;23.256;2024-03-08T01:44:53;93762.22;;;5.32;100.00
41690;BME280;27372;42.658;23.256;2024-03-08T01:47:19;93755.00;;;5.20;100.00
41690;BME280;27372;42.658;23.256;2024-03-08T01:49:51;93750.16;;;5.44;100.00
41690;BME280;27372;42.658;23.256;2024-03-08T01:52:17;93754.31;;;5.52;100.00
41690;BME280;27372;42.658;23.256;2024-03-08T01:54:47;93762.59;;;5.42;100.00
41690;BME280;27372;42.658;23.256;2024-03-08T01:57:13;93752.16;;;5.49;100.00
41690;BME280;27372;42.658;23.256;2024-03-08T01:59:39;93748.72;;;5.55;100.00
41690;BME280;27372;42.658;23.256;2024-03-08T02:02:06;93755.94;;;5.53;100.00
41690;BME280;27372;42.658;23.256;2024-03-08T02:04:33;93748.50;;;5.50;100.00
41690;BME280;27372;42.658;23.256;2024-03-08T02:06:59;93741.66;;;5.62;100.00
41690;BME280;27372;42.658;23.256;2024-03-08T02:09:25;93746.47;;;5.65;100.00
41690;BME280;27372;42.658;23.256;2024-03-08T02:11:51;93735.66;;;5.68;100.00
41690;BME280;27372;42.658;23.256;2024-03-08T02:14:17;93747.25;;;5.72;100.00
41690;BME280;27372;42.658;23.256;2024-03-08T02:16:43;93746.47;;;5.72;100.00
41690;BME280;27372;42.658;23.256;2024-03-08T02:19:09;93752.28;;;5.74;100.00
41690;BME280;27372;42.658;23.256;2024-03-08T02:21:35;93742.81;;;5.80;100.00
41690;BME280;27372;42.658;23.256;2024-03-08T02:24:01;93746.97;;;5.87;100.00
41690;BME280;27372;42.658;23.256;2024-03-08T02:26:26;93754.78;;;5.94;100.00
41690;BME280;27372;42.658;23.256;2024-03-08T02:28:52;93748.19;;;5.91;100.00
41690;BME280;27372;42.658;23.256;2024-03-08T02:31:17;93756.25;;;5.83;100.00
41690;BME280;27372;42.658;23.256;2024-03-08T02:33:43;93745.38;;;5.86;100.00
41690;BME280;27372;42.658;23.256;2024-03-08T02:36:08;93759.22;;;5.87;100.00
41690;BME280;27372;42.658;23.256;2024-03-08T02:38:34;93762.81;;;5.93;100.00
41690;BME280;27372;42.658;23.256;2024-03-08T02:40:59;93755.22;;;5.84;100.00
41690;BME280;27372;42.658;23.256;2024-03-08T02:43:24;93749.66;;;5.74;100.00
41690;BME280;27372;42.658;23.256;2024-03-08T02:45:50;93763.84;;;5.85;100.00
41690;BME280;27372;42.658;23.256;2024-03-08T02:48:18;93763.00;;;5.91;100.00
41690;BME280;27372;42.658;23.256;2024-03-08T02:50:43;93756.00;;;5.91;100.00
41690;BME280;27372;42.658;23.256;2024-03-08T02:53:10;93755.59;;;5.95;100.00
41690;BME280;27372;42.658;23.256;2024-03-08T02:55:36;93759.88;;;5.75;100.00
41690;BME280;27372;42.658;23.256;2024-03-08T02:58:03;93754.91;;;5.67;100.00
41690;BME280;27372;42.658;23.256;2024-03-08T03:00:29;93761.13;;;5.53;100.00
41690;BME280;27372;42.658;23.256;2024-03-08T03:02:56;93754.94;;;5.40;100.00
41690;BME280;27372;42.658;23.256;2024-03-08T03:05:22;93760.44;;;4.98;100.00
41690;BME280;27372;42.658;23.256;2024-03-08T03:07:47;93750.81;;;4.59;100.00
41690;BME280;27372;42.658;23.256;2024-03-08T03:10:14;93759.41;;;4.32;100.00
41690;BME280;27372;42.658;23.256;2024-03-08T03:12:42;93757.19;;;4.16;100.00
41690;BME280;27372;42.658;23.256;2024-03-08T03:15:08;93755.97;;;4.05;100.00
41690;BME280;27372;42.658;23.256;2024-03-08T03:17:33;93758.91;;;3.95;100.00
41690;BME280;27372;42.658;23.256;2024-03-08T03:19:58;93762.09;;;3.91;100.00
41690;BME280;27372;42.658;23.256;2024-03-08T03:22:24;93763.47;;;3.80;100.00
41690;BME280;27372;42.658;23.256;2024-03-08T03:24:50;93764.81;;;3.69;100.00
41690;BME280;27372;42.658;23.256;2024-03-08T03:27:17;93769.63;;;3.72;100.00
41690;BME280;27372;42.658;23.256;2024-03-08T03:29:43;93766.41;;;3.70;100.00
41690;BME280;27372;42.658;23.256;2024-03-08T03:32:13;93772.38;;;3.57;100.00
41690;BME280;27372;42.658;23.256;2024-03-08T03:34:39;93774.94;;;3.50;100.00
41690;BME280;27372;42.658;23.256;2024-03-08T03:37:05;93772.34;;;3.50;100.00
41690;BME280;27372;42.658;23.256;2024-03-08T03:39:37;93774.88;;;3.44;100.00
41690;BME280;27372;42.658;23.256;2024-03-08T03:42:16;93773.69;;;3.39;100.00
41690;BME280;27372;42.658;23.256;2024-03-08T03:44:47;93779.13;;;3.51;100.00
41690;BME280;27372;42.658;23.256;2024-03-08T03:47:13;93791.75;;;3.54;100.00
41690;BME280;27372;42.658;23.256;2024-03-08T03:49:40;93786.50;;;3.48;100.00
41690;BME280;27372;42.658;23.256;2024-03-08T03:52:05;93790.75;;;3.55;100.00
41690;BME280;27372;42.658;23.256;2024-03-08T03:54:31;93809.25;;;3.81;100.00
41690;BME280;27372;42.658;23.256;2024-03-08T03:56:56;93795.69;;;3.92;100.00
41690;BME280;27372;42.658;23.256;2024-03-08T03:59:22;93799.59;;;4.16;100.00
41690;BME280;27372;42.658;23.256;2024-03-08T04:01:47;93802.19;;;4.23;100.00
41690;BME280;27372;42.658;23.256;2024-03-08T04:04:14;93803.44;;;4.41;100.00
41690;BME280;27372;42.658;23.256;2024-03-08T04:06:39;93812.25;;;4.53;100.00
41690;BME280;27372;42.658;23.256;2024-03-08T04:09:04;93801.47;;;4.70;100.00
41690;BME280;27372;42.658;23.256;2024-03-08T04:11:30;93821.13;;;4.86;100.00
41690;BME280;27372;42.658;23.256;2024-03-08T04:13:55;93824.31;;;4.88;100.00
41690;BME280;27372;42.658;23.256;2024-03-08T04:16:21;93810.28;;;4.95;100.00
41690;BME280;27372;42.658;23.256;2024-03-08T04:18:46;93815.91;;;5.06;100.00
41690;BME280;27372;42.658;23.256;2024-03-08T04:21:13;93815.88;;;4.99;100.00
41690;BME280;27372;42.658;23.256;2024-03-08T04:23:38;93813.69;;;5.09;100.00
41690;BME280;27372;42.658;23.256;2024-03-08T04:26:03;93825.31;;;5.20;100.00
41690;BME280;27372;42.658;23.256;2024-03-08T04:28:32;93832.72;;;5.30;100.00
41690;BME280;27372;42.658;23.256;2024-03-08T04:30:58;93831.91;;;5.23;100.00
41690;BME280;27372;42.658;23.256;2024-03-08T04:33:26;93839.91;;;5.35;100.00
41690;BME280;27372;42.658;23.256;2024-03-08T04:35:51;93829.91;;;5.18;98.94
41690;BME280;27372;42.658;23.256;2024-03-08T04:38:16;93838.34;;;5.20;99.14
41690;BME280;27372;42.658;23.256;2024-03-08T04:40:42;93837.94;;;5.23;98.84
41690;BME280;27372;42.658;23.256;2024-03-08T04:43:07;93840.13;;;5.33;97.97
41690;BME280;27372;42.658;23.256;2024-03-08T04:45:34;93844.50;;;5.39;98.00
41690;BME280;27372;42.658;23.256;2024-03-08T04:47:59;93836.69;;;5.39;98.32
41690;BME280;27372;42.658;23.256;2024-03-08T04:50:24;93842.34;;;5.43;98.63
41690;BME280;27372;42.658;23.256;2024-03-08T04:52:50;93839.13;;;5.41;98.44
41690;BME280;27372;42.658;23.256;2024-03-08T04:55:15;93842.50;;;5.41;99.00
41690;BME280;27372;42.658;23.256;2024-03-08T04:57:40;93843.13;;;5.30;99.04
41690;BME280;27372;42.658;23.256;2024-03-08T05:00:07;93835.34;;;5.23;99.00
41690;BME280;27372;42.658;23.256;2024-03-08T05:02:36;93846.72;;;4.95;99.37
41690;BME280;27372;42.658;23.256;2024-03-08T05:05:01;93843.13;;;4.83;100.00
41690;BME280;27372;42.658;23.256;2024-03-08T05:07:27;93841.91;;;4.79;100.00
41690;BME280;27372;42.658;23.256;2024-03-08T05:09:52;93847.50;;;4.62;100.00
41690;BME280;27372;42.658;23.256;2024-03-08T05:12:18;93841.50;;;4.62;100.00
41690;BME280;27372;42.658;23.256;2024-03-08T05:14:45;93851.28;;;4.46;100.00
41690;BME280;27372;42.658;23.256;2024-03-08T05:17:14;93858.47;;;4.44;100.00
41690;BME280;27372;42.658;23.256;2024-03-08T05:19:40;93845.06;;;4.47;100.00
41690;BME280;27372;42.658;23.256;2024-03-08T05:22:05;93865.06;;;4.47;100.00
41690;BME280;27372;42.658;23.256;2024-03-08T05:24:30;93863.03;;;4.35;100.00
41690;BME280;27372;42.658;23.256;2024-03-08T05:26:56;93868.63;;;4.39;100.00
41690;BME280;27372;42.658;23.256;2024-03-08T05:29:21;93870.41;;;4.32;100.00
41690;BME280;27372;42.658;23.256;2024-03-08T05:31:48;93881.81;;;4.31;100.00
41690;BME280;27372;42.658;23.256;2024-03-08T05:34:14;93884.66;;;4.36;100.00
41690;BME280;27372;42.658;23.256;2024-03-08T05:36:41;93886.00;;;4.25;100.00
41690;BME280;27372;42.658;23.256;2024-03-08T05:39:09;93888.34;;;4.13;100.00
41690;BME280;27372;42.658;23.256;2024-03-08T05:41:37;93893.31;;;4.08;100.00
41690;BME280;27372;42.658;23.256;2024-03-08T05:44:03;93902.97;;;4.14;100.00
41690;BME280;27372;42.658;23.256;2024-03-08T05:46:28;93888.97;;;4.15;100.00
41690;BME280;27372;42.658;23.256;2024-03-08T05:48:53;93895.38;;;4.19;100.00
41690;BME280;27372;42.658;23.256;2024-03-08T05:51:19;93902.41;;;4.26;100.00
41690;BME280;27372;42.658;23.256;2024-03-08T05:53:46;93904.16;;;4.18;100.00
41690;BME280;27372;42.658;23.256;2024-03-08T05:56:12;93901.78;;;4.24;100.00
41690;BME280;27372;42.658;23.256;2024-03-08T05:58:37;93905.84;;;4.33;100.00
41690;BME280;27372;42.658;23.256;2024-03-08T06:01:03;93909.59;;;4.24;100.00
41690;BME280;27372;42.658;23.256;2024-03-08T06:03:33;93918.50;;;4.08;100.00
41690;BME280;27372;42.658;23.256;2024-03-08T06:05:58;93913.63;;;3.91;100.00
41690;BME280;27372;42.658;23.256;2024-03-08T06:08:24;93922.53;;;4.10;100.00
41690;BME280;27372;42.658;23.256;2024-03-08T06:10:55;93926.13;;;4.09;100.00
41690;BME280;27372;42.658;23.256;2024-03-08T06:13:20;93926.88;;;4.03;100.00
41690;BME280;27372;42.658;23.256;2024-03-08T06:15:45;93930.16;;;4.12;100.00
41690;BME280;27372;42.658;23.256;2024-03-08T06:18:11;93929.13;;;4.13;100.00
41690;BME280;27372;42.658;23.256;2024-03-08T06:20:36;93933.53;;;4.12;100.00
41690;BME280;27372;42.658;23.256;2024-03-08T06:23:02;93934.31;;;4.13;100.00
41690;BME280;27372;42.658;23.256;2024-03-08T06:25:27;93924.03;;;4.33;100.00
41690;BME280;27372;42.658;23.256;2024-03-08T06:27:52;93931.00;;;4.26;100.00
41690;BME280;27372;42.658;23.256;2024-03-08T06:30:18;93931.66;;;4.41;100.00
41690;BME280;27372;42.658;23.256;2024-03-08T06:32:45;93923.28;;;4.46;100.00
41690;BME280;27372;42.658;23.256;2024-03-08T06:35:10;93924.31;;;4.51;100.00
41690;BME280;27372;42.658;23.256;2024-03-08T06:37:36;93929.50;;;4.51;100.00
41690;BME280;27372;42.658;23.256;2024-03-08T06:40:02;93934.53;;;4.60;100.00
41690;BME280;27372;42.658;23.256;2024-03-08T06:42:33;93944.72;;;4.55;100.00
41690;BME280;27372;42.658;23.256;2024-03-08T06:45:00;93943.50;;;4.50;100.00
41690;BME280;27372;42.658;23.256;2024-03-08T06:47:30;93941.50;;;4.53;100.00
41690;BME280;27372;42.658;23.256;2024-03-08T06:49:56;93938.31;;;4.50;100.00
41690;BME280;27372;42.658;23.256;2024-03-08T06:52:21;93939.56;;;4.61;100.00
41690;BME280;27372;42.658;23.256;2024-03-08T06:54:47;93948.72;;;4.57;100.00
41690;BME280;27372;42.658;23.256;2024-03-08T06:57:13;93948.78;;;4.71;100.00
41690;BME280;27372;42.658;23.256;2024-03-08T06:59:39;93946.59;;;4.74;100.00
41690;BME280;27372;42.658;23.256;2024-03-08T07:02:04;93944.78;;;4.75;100.00
41690;BME280;27372;42.658;23.256;2024-03-08T07:04:29;93952.63;;;4.88;100.00
41690;BME280;27372;42.658;23.256;2024-03-08T07:06:56;93954.72;;;4.51;100.00
41690;BME280;27372;42.658;23.256;2024-03-08T07:09:25;93957.75;;;4.68;100.00
41690;BME280;27372;42.658;23.256;2024-03-08T07:11:51;93950.59;;;4.77;100.00
41690;BME280;27372;42.658;23.256;2024-03-08T07:14:24;93952.41;;;4.76;100.00
41690;BME280;27372;42.658;23.256;2024-03-08T07:50:43;93973.78;;;5.67;97.56
41690;BME280;27372;42.658;23.256;2024-03-08T08:36:53;93978.44;;;7.17;86.69
41690;BME280;27372;42.658;23.256;2024-03-08T08:39:30;93974.06;;;7.36;88.04
41690;BME280;27372;42.658;23.256;2024-03-08T08:55:11;93973.72;;;7.83;83.54
41690;BME280;27372;42.658;23.256;2024-03-08T08:57:43;93985.56;;;8.11;82.88
41690;BME280;27372;42.658;23.256;2024-03-08T09:00:10;93975.66;;;7.94;85.35
41690;BME280;27372;42.658;23.256;2024-03-08T09:03:14;93975.97;;;8.04;84.35
41690;BME280;27372;42.658;23.256;2024-03-08T09:05:42;93974.22;;;7.98;85.62
41690;BME280;27372;42.658;23.256;2024-03-08T09:08:27;93959.09;;;8.44;83.14
41690;BME280;27372;42.658;23.256;2024-03-08T09:10:53;93965.44;;;8.55;82.75
41690;BME280;27372;42.658;23.256;2024-03-08T09:13:19;93969.84;;;7.92;84.36
41690;BME280;27372;42.658;23.256;2024-03-08T09:15:44;93975.72;;;7.87;85.22
41690;BME280;27372;42.658;23.256;2024-03-08T09:18:10;93978.22;;;8.01;83.61
41690;BME280;27372;42.658;23.256;2024-03-08T09:20:36;93965.81;;;8.15;82.32
41690;BME280;27372;42.658;23.256;2024-03-08T09:23:02;93970.34;;;8.26;79.69
41690;BME280;27372;42.658;23.256;2024-03-08T09:25:47;93970.41;;;8.38;79.15
41690;BME280;27372;42.658;23.256;2024-03-08T09:28:14;93958.50;;;8.23;80.50
41690;BME280;27372;42.658;23.256;2024-03-08T09:30:39;93970.34;;;8.26;80.61
41690;BME280;27372;42.658;23.256;2024-03-08T09:33:20;93963.81;;;8.54;79.48
41690;BME280;27372;42.658;23.256;2024-03-08T09:35:47;93964.88;;;8.46;77.88
41690;BME280;27372;42.658;23.256;2024-03-08T09:38:13;93971.63;;;8.61;77.60
41690;BME280;27372;42.658;23.256;2024-03-08T09:40:41;93974.72;;;8.88;75.23
41690;BME280;27372;42.658;23.256;2024-03-08T09:43:06;93967.44;;;8.90;75.61
41690;BME280;27372;42.658;23.256;2024-03-08T09:45:35;93972.44;;;9.41;73.69
41690;BME280;27372;42.658;23.256;2024-03-08T09:48:01;93975.91;;;9.65;72.57
41690;BME280;27372;42.658;23.256;2024-03-08T09:50:28;93979.31;;;9.77;72.38
41690;BME280;27372;42.658;23.256;2024-03-08T09:52:55;93974.84;;;9.54;71.65
41690;BME280;27372;42.658;23.256;2024-03-08T09:55:22;93975.00;;;9.83;69.20
41690;BME280;27372;42.658;23.256;2024-03-08T09:57:48;93975.72;;;10.26;69.55
41690;BME280;27372;42.658;23.256;2024-03-08T10:00:35;93972.28;;;10.25;68.57
41690;BME280;27372;42.658;23.256;2024-03-08T10:03:03;93973.91;;;10.38;68.25
41690;BME280;27372;42.658;23.256;2024-03-08T10:05:32;93975.13;;;10.00;68.62
41690;BME280;27372;42.658;23.256;2024-03-08T10:07:58;93972.75;;;9.99;68.71
41690;BME280;27372;42.658;23.256;2024-03-08T10:10:23;93981.50;;;9.92;70.67
41690;BME280;27372;42.658;23.256;2024-03-08T10:12:49;93971.59;;;9.94;68.60
41690;BME280;27372;42.658;23.256;2024-03-08T10:15:16;93970.00;;;9.82;68.29
41690;BME280;27372;42.658;23.256;2024-03-08T10:17:45;93968.66;;;10.15;66.96
41690;BME280;27372;42.658;23.256;2024-03-08T10:20:17;93974.34;;;10.59;66.52
41690;BME280;27372;42.658;23.256;2024-03-08T10:22:43;93983.31;;;10.87;65.34
41690;BME280;27372;42.658;23.256;2024-03-08T10:25:12;93976.84;;;10.78;62.67
41690;BME280;27372;42.658;23.256;2024-03-08T10:27:39;93980.28;;;10.31;64.01
41690;BME280;27372;42.658;23.256;2024-03-08T10:30:14;93970.69;;;10.24;65.21
41690;BME280;27372;42.658;23.256;2024-03-08T10:32:41;93964.16;;;9.79;68.63
41690;BME280;27372;42.658;23.256;2024-03-08T10:35:07;93961.56;;;9.91;68.90
41690;BME280;27372;42.658;23.256;2024-03-08T10:37:39;93961.00;;;9.89;68.32
41690;BME280;27372;42.658;23.256;2024-03-08T10:40:10;93960.09;;;10.19;67.03
41690;BME280;27372;42.658;23.256;2024-03-08T10:42:53;93957.00;;;10.46;65.56
41690;BME280;27372;42.658;23.256;2024-03-08T10:45:36;93956.78;;;10.48;66.39
41690;BME280;27372;42.658;23.256;2024-03-08T10:50:53;93949.56;;;10.43;64.00
41690;BME280;27372;42.658;23.256;2024-03-08T10:53:19;93944.09;;;10.33;66.47
41690;BME280;27372;42.658;23.256;2024-03-08T10:55:49;93953.59;;;10.46;65.53
41690;BME280;27372;42.658;23.256;2024-03-08T10:58:20;93947.38;;;10.76;66.13
41690;BME280;27372;42.658;23.256;2024-03-08T11:00:46;93942.47;;;10.67;66.79
41690;BME280;27372;42.658;23.256;2024-03-08T11:06:08;93937.94;;;10.51;64.17
41690;BME280;27372;42.658;23.256;2024-03-08T11:08:37;93937.50;;;11.58;61.27
41690;BME280;27372;42.658;23.256;2024-03-08T11:11:04;93927.09;;;11.63;63.33
41690;BME280;27372;42.658;23.256;2024-03-08T11:13:40;93919.84;;;12.66;56.56
41690;BME280;27372;42.658;23.256;2024-03-08T11:16:10;93916.13;;;13.39;55.08
41690;BME280;27372;42.658;23.256;2024-03-08T11:18:36;93909.72;;;14.32;52.53
41690;BME280;27372;42.658;23.256;2024-03-08T11:21:08;93915.53;;;14.93;50.84
41690;BME280;27372;42.658;23.256;2024-03-08T11:23:38;93908.91;;;14.26;49.98
41690;BME280;27372;42.658;23.256;2024-03-08T11:26:18;93910.56;;;14.43;49.13
41690;BME280;27372;42.658;23.256;2024-03-08T11:28:43;93901.16;;;13.17;51.00
41690;BME280;27372;42.658;23.256;2024-03-08T11:33:36;93902.25;;;13.81;48.76
41690;BME280;27372;42.658;23.256;2024-03-08T11:36:12;93897.06;;;14.34;46.52
41690;BME280;27372;42.658;23.256;2024-03-08T11:38:42;93905.38;;;15.94;44.86
41690;BME280;27372;42.658;23.256;2024-03-08T11:41:09;93908.81;;;15.95;44.18
41690;BME280;27372;42.658;23.256;2024-03-08T11:43:37;93903.00;;;15.93;44.35
41690;BME280;27372;42.658;23.256;2024-03-08T11:46:09;93898.50;;;16.90;42.14
41690;BME280;27372;42.658;23.256;2024-03-08T11:48:35;93891.41;;;17.70;38.99
41690;BME280;27372;42.658;23.256;2024-03-08T11:51:03;93882.34;;;16.86;39.05
41690;BME280;27372;42.658;23.256;2024-03-08T11:53:30;93892.13;;;15.63;40.35
41690;BME280;27372;42.658;23.256;2024-03-08T11:56:13;93894.25;;;15.92;42.21
41690;BME280;27372;42.658;23.256;2024-03-08T11:58:41;93886.22;;;17.54;40.04
41690;BME280;27372;42.658;23.256;2024-03-08T12:01:08;93881.28;;;17.72;39.02
41690;BME280;27372;42.658;23.256;2024-03-08T12:03:42;93886.41;;;16.68;41.49
41690;BME280;27372;42.658;23.256;2024-03-08T12:06:11;93885.19;;;16.29;40.22
41690;BME280;27372;42.658;23.256;2024-03-08T12:08:39;93889.00;;;15.87;41.27
41690;BME280;27372;42.658;23.256;2024-03-08T12:11:04;93899.00;;;16.11;41.84
41690;BME280;27372;42.658;23.256;2024-03-08T12:13:32;93889.75;;;15.88;42.21
41690;BME280;27372;42.658;23.256;2024-03-08T12:15:59;93889.72;;;15.72;42.27
41690;BME280;27372;42.658;23.256;2024-03-08T12:18:26;93888.69;;;15.73;40.98
41690;BME280;27372;42.658;23.256;2024-03-08T12:21:04;93888.63;;;16.40;40.91
41690;BME280;27372;42.658;23.256;2024-03-08T12:23:33;93874.94;;;16.83;40.38
41690;BME280;27372;42.658;23.256;2024-03-08T12:26:18;93867.75;;;17.74;38.18
41690;BME280;27372;42.658;23.256;2024-03-08T12:28:49;93874.44;;;17.26;38.32
41690;BME280;27372;42.658;23.256;2024-03-08T12:31:16;93873.50;;;16.46;41.28
41690;BME280;27372;42.658;23.256;2024-03-08T12:36:20;93867.41;;;14.80;42.43
41690;BME280;27372;42.658;23.256;2024-03-08T12:38:47;93871.44;;;15.03;71.98
41690;BME280;27372;42.658;23.256;2024-03-08T12:41:17;93869.63;;;15.30;55.99
41690;BME280;27372;42.658;23.256;2024-03-08T12:43:44;93864.94;;;17.20;52.01
41690;BME280;27372;42.658;23.256;2024-03-08T12:46:19;93864.41;;;18.70;40.76
41690;BME280;27372;42.658;23.256;2024-03-08T12:48:45;93859.88;;;19.66;39.68
41690;BME280;27372;42.658;23.256;2024-03-08T12:51:17;93854.69;;;19.75;37.72
41690;BME280;27372;42.658;23.256;2024-03-08T12:53:44;93851.44;;;19.45;36.69
41690;BME280;27372;42.658;23.256;2024-03-08T12:56:10;93850.56;;;18.92;35.72
41690;BME280;27372;42.658;23.256;2024-03-08T12:58:36;93849.41;;;19.56;37.47
41690;BME280;27372;42.658;23.256;2024-03-08T13:01:05;93852.44;;;20.57;35.00
41690;BME280;27372;42.658;23.256;2024-03-08T13:03:35;93853.84;;;20.55;35.13
41690;BME280;27372;42.658;23.256;2024-03-08T13:06:02;93855.81;;;20.21;34.07
41690;BME280;27372;42.658;23.256;2024-03-08T13:08:28;93848.56;;;19.03;35.30
41690;BME280;27372;42.658;23.256;2024-03-08T13:10:54;93852.66;;;17.69;37.41
41690;BME280;27372;42.658;23.256;2024-03-08T13:13:20;93853.91;;;17.02;38.53
41690;BME280;27372;42.658;23.256;2024-03-08T13:15:45;93859.84;;;15.92;40.38
41690;BME280;27372;42.658;23.256;2024-03-08T13:18:11;93859.75;;;16.34;39.85
41690;BME280;27372;42.658;23.256;2024-03-08T13:20:36;93849.34;;;16.53;39.97
41690;BME280;27372;42.658;23.256;2024-03-08T13:23:04;93852.97;;;17.22;38.66
41690;BME280;27372;42.658;23.256;2024-03-08T13:25:30;93854.06;;;17.56;38.28
41690;BME280;27372;42.658;23.256;2024-03-08T13:27:56;93851.09;;;16.73;38.30
41690;BME280;27372;42.658;23.256;2024-03-08T13:30:24;93849.78;;;17.26;38.26
41690;BME280;27372;42.658;23.256;2024-03-08T13:32:52;93846.91;;;16.67;38.92
41690;BME280;27372;42.658;23.256;2024-03-08T13:35:18;93851.69;;;17.15;38.34
41690;BME280;27372;42.658;23.256;2024-03-08T13:37:51;93845.75;;;16.88;39.16
41690;BME280;27372;42.658;23.256;2024-03-08T13:40:17;93845.22;;;16.86;39.04
41690;BME280;27372;42.658;23.256;2024-03-08T13:42:45;93850.16;;;17.48;37.78
41690;BME280;27372;42.658;23.256;2024-03-08T13:45:11;93851.78;;;17.44;37.21
41690;BME280;27372;42.658;23.256;2024-03-08T13:47:41;93845.44;;;16.35;38.78
41690;BME280;27372;42.658;23.256;2024-03-08T13:50:07;93847.28;;;16.39;39.19
41690;BME280;27372;42.658;23.256;2024-03-08T13:52:37;93856.38;;;16.07;39.03
41690;BME280;27372;42.658;23.256;2024-03-08T13:55:03;93846.84;;;15.55;39.73
41690;BME280;27372;42.658;23.256;2024-03-08T13:57:30;93853.75;;;15.61;40.56
41690;BME280;27372;42.658;23.256;2024-03-08T13:59:57;93854.03;;;15.54;40.92
41690;BME280;27372;42.658;23.256;2024-03-08T14:02:22;93845.50;;;14.95;42.19
41690;BME280;27372;42.658;23.256;2024-03-08T14:04:50;93842.44;;;13.97;43.77
41690;BME280;27372;42.658;23.256;2024-03-08T14:07:16;93855.06;;;13.90;44.69
41690;BME280;27372;42.658;23.256;2024-03-08T14:09:43;93850.69;;;14.06;44.40
41690;BME280;27372;42.658;23.256;2024-03-08T14:12:10;93856.53;;;13.70;43.46
41690;BME280;27372;42.658;23.256;2024-03-08T14:14:35;93840.56;;;13.55;44.78
41690;BME280;27372;42.658;23.256;2024-03-08T14:17:03;93845.75;;;13.39;45.31
41690;BME280;27372;42.658;23.256;2024-03-08T14:19:29;93849.78;;;13.19;45.64
41690;BME280;27372;42.658;23.256;2024-03-08T14:21:59;93842.44;;;12.72;47.52
41690;BME280;27372;42.658;23.256;2024-03-08T14:24:25;93845.84;;;12.45;47.72
41690;BME280;27372;42.658;23.256;2024-03-08T14:26:51;93851.91;;;12.23;48.95
41690;BME280;27372;42.658;23.256;2024-03-08T14:29:17;93839.03;;;11.88;50.72
41690;BME280;27372;42.658;23.256;2024-03-08T14:31:44;93837.25;;;11.71;51.07
41690;BME280;27372;42.658;23.256;2024-03-08T14:34:10;93839.41;;;11.40;51.70